Time;durP1;ratioP1;P1;durP2;ratioP2;P2;SDS_P1;SDS_P2;PMS_P1;PMS_P2;Temp;Humidity;BMP_temperature;BMP_pressure;BME280_temperature;BME280_humidity;BME280_pressure;Samples;Min_cycle;Max_cycle;Signal;HPM_P1;HPM_P2
2021/03/07 00:01:30;;;;;;;2.35;1.38;;;2.20;75.10;;;;;;5071876;28;20035;-87
2021/03/07 00:03:55;;;;;;;3.05;1.67;;;2.20;75.20;;;;;;5062247;28;20059;-87
2021/03/07 00:06:21;;;;;;;5.20;1.90;;;2.20;75.20;;;;;;5058799;28;20492;-88
2021/03/07 00:08:46;;;;;;;2.95;1.50;;;2.20;75.30;;;;;;5062605;28;20024;-88
2021/03/07 00:11:12;;;;;;;4.05;1.50;;;2.20;75.20;;;;;;5066758;28;20070;-87
2021/03/07 00:13:37;;;;;;;4.47;1.45;;;2.20;75.30;;;;;;5066734;28;20032;-87
2021/03/07 00:16:03;;;;;;;3.25;1.45;;;2.20;75.40;;;;;;5061136;28;20117;-87
2021/03/07 00:18:28;;;;;;;4.22;1.52;;;2.20;75.40;;;;;;5070289;28;20472;-87
2021/03/07 00:20:54;;;;;;;2.92;1.52;;;2.10;75.50;;;;;;5058916;28;20027;-87
2021/03/07 00:23:19;;;;;;;2.22;1.20;;;2.10;75.50;;;;;;5065334;28;20021;-87
2021/03/07 00:25:45;;;;;;;4.65;1.58;;;2.10;75.60;;;;;;5070463;28;20013;-87
2021/03/07 00:28:10;;;;;;;2.95;1.52;;;2.10;75.70;;;;;;5059587;28;20492;-87
2021/03/07 00:30:36;;;;;;;2.85;1.40;;;2.00;75.60;;;;;;5059763;28;20059;-87
2021/03/07 00:33:02;;;;;;;3.28;1.75;;;2.00;75.80;;;;;;5058989;28;20075;-87
2021/03/07 00:35:27;;;;;;;4.55;1.80;;;2.00;75.90;;;;;;5058113;28;20021;-87
2021/03/07 00:37:53;;;;;;;2.45;1.40;;;2.00;76.10;;;;;;5065571;28;20017;-87
2021/03/07 00:40:19;;;;;;;2.45;1.38;;;2.00;76.30;;;;;;5062890;28;21213;-87
2021/03/07 00:42:46;;;;;;;4.57;1.98;;;1.90;76.40;;;;;;5059470;28;20473;-87
2021/03/07 00:45:13;;;;;;;2.65;1.70;;;1.90;76.60;;;;;;5057088;28;20032;-87
2021/03/07 00:47:39;;;;;;;3.20;1.40;;;1.90;76.70;;;;;;5057038;28;20410;-87
2021/03/07 00:50:23;;;;;;;4.75;1.98;;;1.90;76.90;;;;;;5054082;28;20028;-87
2021/03/07 00:52:49;;;;;;;5.00;2.17;;;1.90;77.30;;;;;;5060146;28;20048;-87
2021/03/07 00:55:15;;;;;;;3.45;2.10;;;1.80;77.90;;;;;;5056522;28;20047;-87
2021/03/07 00:57:40;;;;;;;5.63;2.30;;;1.80;78.50;;;;;;5065320;28;20480;-87
2021/03/07 01:00:13;;;;;;;3.65;2.35;;;1.80;78.60;;;;;;5065446;28;20017;-87
2021/03/07 01:02:39;;;;;;;3.33;1.73;;;1.80;78.60;;;;;;5060103;28;20021;-87
2021/03/07 01:05:06;;;;;;;2.22;1.38;;;1.80;78.50;;;;;;5058063;28;20017;-87
2021/03/07 01:07:31;;;;;;;1.80;1.42;;;1.80;78.60;;;;;;5070767;28;20060;-87
2021/03/07 01:09:57;;;;;;;3.00;1.50;;;1.80;78.70;;;;;;5064110;28;20045;-87
2021/03/07 01:12:22;;;;;;;2.97;1.70;;;1.80;78.70;;;;;;5077469;28;20032;-87
2021/03/07 01:14:48;;;;;;;2.75;1.30;;;1.70;78.70;;;;;;5064547;28;20021;-87
2021/03/07 01:17:14;;;;;;;3.60;1.50;;;1.80;78.80;;;;;;5065837;28;20047;-86
2021/03/07 01:19:39;;;;;;;2.92;2.08;;;1.70;78.90;;;;;;5075084;28;20697;-87
2021/03/07 01:22:05;;;;;;;3.88;1.60;;;1.70;79.10;;;;;;5060499;28;20021;-87
2021/03/07 01:24:30;;;;;;;2.88;1.75;;;1.70;79.20;;;;;;5062248;28;20055;-87
2021/03/07 01:26:56;;;;;;;3.10;1.90;;;1.60;79.20;;;;;;5062235;28;20060;-87
2021/03/07 01:29:21;;;;;;;3.50;1.55;;;1.50;79.30;;;;;;5071397;28;20036;-86
2021/03/07 01:31:47;;;;;;;3.25;1.50;;;1.50;79.40;;;;;;5064851;28;20025;-87
2021/03/07 01:34:13;;;;;;;2.35;1.45;;;1.50;79.50;;;;;;5056702;28;20028;-87
2021/03/07 01:36:38;;;;;;;4.57;1.40;;;1.40;79.50;;;;;;5058054;28;20023;-87
2021/03/07 01:39:05;;;;;;;2.05;1.10;;;1.50;79.60;;;;;;5066227;28;20008;-87
2021/03/07 01:41:30;;;;;;;2.35;1.20;;;1.40;79.60;;;;;;5069223;28;20501;-87
2021/03/07 01:43:56;;;;;;;2.35;1.20;;;1.40;79.60;;;;;;5074177;28;20025;-87
2021/03/07 01:46:22;;;;;;;2.88;1.38;;;1.40;79.60;;;;;;5071119;28;20028;-87
2021/03/07 01:48:48;;;;;;;3.60;1.55;;;1.30;79.80;;;;;;5061642;28;20029;-87
2021/03/07 01:51:14;;;;;;;2.85;1.48;;;1.30;80.10;;;;;;5062047;28;20140;-86
2021/03/07 01:53:41;;;;;;;3.22;1.40;;;1.30;80.10;;;;;;5067865;28;20488;-87
2021/03/07 01:56:09;;;;;;;1.90;1.30;;;1.20;80.10;;;;;;5055666;28;20032;-87
2021/03/07 01:58:37;;;;;;;2.65;1.55;;;1.20;80.20;;;;;;5067851;28;20048;-87
2021/03/07 02:01:03;;;;;;;4.13;2.30;;;1.20;80.40;;;;;;5067044;28;20059;-87
2021/03/07 02:03:29;;;;;;;4.57;2.35;;;1.20;80.50;;;;;;5059361;28;20464;-87
2021/03/07 02:05:55;;;;;;;2.30;1.20;;;1.20;80.50;;;;;;5060050;28;20032;-86
2021/03/07 02:08:21;;;;;;;3.25;1.73;;;1.20;80.50;;;;;;5071241;28;20032;-87
2021/03/07 02:10:56;;;;;;;2.35;1.23;;;1.20;80.60;;;;;;5067079;28;20012;-87
2021/03/07 02:13:23;;;;;;;3.03;1.27;;;1.20;80.60;;;;;;5060754;28;20120;-87
2021/03/07 02:15:54;;;;;;;3.58;1.55;;;1.20;80.60;;;;;;5065362;28;20025;-87
2021/03/07 02:18:20;;;;;;;2.90;1.58;;;1.20;80.70;;;;;;5059756;28;20016;-87
2021/03/07 02:21:03;;;;;;;1.92;1.48;;;1.20;80.80;;;;;;5066420;28;20028;-87
2021/03/07 02:23:33;;;;;;;2.85;1.48;;;1.20;80.90;;;;;;5063058;28;20028;-87
2021/03/07 02:25:58;;;;;;;2.17;1.10;;;1.10;80.90;;;;;;5070145;28;20511;-86
2021/03/07 02:28:26;;;;;;;2.58;1.45;;;1.00;81.10;;;;;;5058985;28;20270;-87
2021/03/07 02:30:52;;;;;;;3.22;1.63;;;1.00;81.70;;;;;;5067748;28;20089;-87
2021/03/07 02:33:32;;;;;;;3.28;1.20;;;0.90;81.50;;;;;;5061224;28;20034;-86
2021/03/07 02:36:08;;;;;;;21.13;1.58;;;0.90;81.60;;;;;;5059467;28;20025;-86
2021/03/07 02:38:38;;;;;;;6.13;1.10;;;0.90;81.60;;;;;;5068205;28;20021;-87
2021/03/07 02:41:06;;;;;;;17.25;1.15;;;0.90;81.70;;;;;;5060388;28;20055;-86
2021/03/07 02:43:38;;;;;;;1.90;1.10;;;0.90;81.80;;;;;;5066143;28;20025;-86
2021/03/07 02:46:05;;;;;;;1.15;0.70;;;0.80;81.80;;;;;;5060980;28;20090;-87
2021/03/07 02:48:31;;;;;;;1.73;1.10;;;0.80;82.00;;;;;;5069829;28;20063;-86
2021/03/07 02:51:01;;;;;;;1.67;0.90;;;0.80;82.20;;;;;;5063913;28;20365;-87
2021/03/07 02:53:28;;;;;;;1.70;1.05;;;0.80;82.80;;;;;;5058430;28;20404;-86
2021/03/07 02:56:08;;;;;;;2.58;1.10;;;0.70;82.20;;;;;;5061773;28;20024;-87
2021/03/07 02:58:36;;;;;;;2.92;1.50;;;0.60;82.50;;;;;;5059426;28;20040;-87
2021/03/07 03:01:07;;;;;;;2.92;1.42;;;0.50;82.70;;;;;;5066015;28;20029;-87
2021/03/07 03:03:37;;;;;;;4.47;1.48;;;0.40;82.90;;;;;;5073060;28;20017;-87
2021/03/07 03:06:04;;;;;;;2.70;1.27;;;0.40;83.10;;;;;;5064762;28;20017;-87
2021/03/07 03:08:32;;;;;;;2.22;1.30;;;0.30;83.20;;;;;;5062670;28;20290;-86
2021/03/07 03:11:00;;;;;;;3.33;1.73;;;0.30;83.30;;;;;;5060656;28;20045;-87
2021/03/07 03:13:26;;;;;;;2.47;1.55;;;0.30;83.40;;;;;;5076731;28;20111;-86
2021/03/07 03:15:53;;;;;;;2.63;1.48;;;0.30;83.50;;;;;;5059442;28;20533;-86
2021/03/07 03:18:20;;;;;;;2.65;1.38;;;0.20;83.50;;;;;;5062208;28;20021;-87
2021/03/07 03:20:47;;;;;;;2.63;1.42;;;0.20;83.40;;;;;;5067483;28;20036;-87
2021/03/07 03:23:13;;;;;;;3.53;1.95;;;0.30;83.40;;;;;;5085890;28;20036;-87
2021/03/07 03:25:39;;;;;;;2.95;1.33;;;0.40;83.20;;;;;;5094662;28;20013;-86
2021/03/07 03:28:06;;;;;;;3.70;1.60;;;0.40;83.00;;;;;;5092210;28;20015;-87
2021/03/07 03:30:32;;;;;;;4.20;1.52;;;0.40;83.00;;;;;;5086694;28;20099;-87
2021/03/07 03:32:57;;;;;;;3.10;2.13;;;0.40;83.00;;;;;;5056219;28;20104;-87
2021/03/07 03:35:23;;;;;;;2.65;1.50;;;0.30;83.30;;;;;;5064703;28;20057;-87
2021/03/07 03:37:49;;;;;;;2.60;1.40;;;0.30;83.50;;;;;;5063869;28;20024;-86
2021/03/07 03:40:23;;;;;;;3.38;1.70;;;0.20;83.60;;;;;;5063446;28;20047;-87
2021/03/07 03:42:56;;;;;;;3.85;1.63;;;0.20;83.80;;;;;;5054490;28;20025;-87
2021/03/07 03:45:23;;;;;;;3.55;2.08;;;0.20;83.80;;;;;;5063153;28;20028;-86
2021/03/07 03:47:54;;;;;;;4.13;1.63;;;0.10;83.90;;;;;;5061233;28;20029;-87
2021/03/07 03:50:22;;;;;;;2.83;1.50;;;0.10;84.10;;;;;;5054728;28;20032;-87
2021/03/07 03:52:50;;;;;;;3.30;1.80;;;0.10;84.00;;;;;;5059298;28;20440;-86
2021/03/07 03:55:20;;;;;;;2.47;1.23;;;0.10;84.00;;;;;;5063364;28;20017;-87
2021/03/07 03:57:51;;;;;;;3.30;1.77;;;0.10;84.10;;;;;;5071308;28;20045;-87
2021/03/07 04:00:21;;;;;;;3.45;2.25;;;0.00;84.30;;;;;;5064261;28;20032;-87
2021/03/07 04:02:47;;;;;;;3.10;1.75;;;0.10;84.30;;;;;;5066055;28;20034;-87
2021/03/07 04:05:17;;;;;;;5.78;2.10;;;0.10;84.20;;;;;;5064835;28;20025;-87
2021/03/07 04:07:45;;;;;;;4.32;1.70;;;0.10;84.10;;;;;;5065189;28;20079;-87
2021/03/07 04:10:12;;;;;;;2.70;1.50;;;0.10;84.00;;;;;;5077501;28;20029;-87
2021/03/07 04:12:39;;;;;;;3.30;1.75;;;0.00;84.00;;;;;;5064390;28;20033;-87
2021/03/07 04:15:06;;;;;;;2.95;1.63;;;0.00;84.00;;;;;;5057255;28;20051;-87
2021/03/07 04:17:32;;;;;;;3.83;2.05;;;0.00;84.00;;;;;;5058095;28;20580;-87
2021/03/07 04:19:58;;;;;;;4.28;2.05;;;-0.10;84.00;;;;;;5065044;28;20392;-87
2021/03/07 04:22:24;;;;;;;3.25;1.83;;;-0.10;84.30;;;;;;5071192;28;20024;-87
2021/03/07 04:24:50;;;;;;;2.67;1.65;;;-0.20;84.40;;;;;;5067322;28;20025;-87
2021/03/07 04:27:16;;;;;;;6.47;3.20;;;-0.20;84.50;;;;;;5068732;28;20551;-87
2021/03/07 04:29:43;;;;;;;4.45;1.88;;;-0.20;84.60;;;;;;5062531;28;20154;-87
2021/03/07 04:32:10;;;;;;;3.22;1.90;;;-0.20;84.60;;;;;;5063409;28;20020;-87
2021/03/07 04:34:36;;;;;;;2.92;1.77;;;-0.30;84.70;;;;;;5060521;28;20013;-87
2021/03/07 04:37:06;;;;;;;2.90;1.90;;;-0.20;84.80;;;;;;5059198;28;20025;-87
2021/03/07 04:39:31;;;;;;;2.90;1.73;;;-0.20;84.70;;;;;;5063419;28;20024;-87
2021/03/07 04:41:59;;;;;;;5.75;2.25;;;-0.30;84.70;;;;;;5064286;28;20030;-87
2021/03/07 04:44:25;;;;;;;3.28;1.88;;;-0.30;85.00;;;;;;5060608;28;20033;-87
2021/03/07 04:46:50;;;;;;;5.82;2.20;;;-0.40;85.00;;;;;;5085618;28;20049;-87
2021/03/07 04:49:16;;;;;;;5.90;2.03;;;-0.40;85.00;;;;;;5068384;28;20048;-87
2021/03/07 04:51:41;;;;;;;3.67;2.10;;;-0.40;84.90;;;;;;5067469;28;20036;-87
2021/03/07 04:54:07;;;;;;;3.08;1.83;;;-0.40;84.90;;;;;;5073803;28;20029;-87
2021/03/07 04:56:32;;;;;;;2.83;1.98;;;-0.30;85.00;;;;;;5071156;28;20020;-87
2021/03/07 04:58:58;;;;;;;3.65;2.13;;;-0.30;84.70;;;;;;5068417;28;20041;-88
2021/03/07 05:01:24;;;;;;;3.30;2.05;;;-0.20;84.80;;;;;;5067869;28;20468;-86
2021/03/07 05:03:52;;;;;;;3.72;2.38;;;-0.30;84.50;;;;;;5070474;28;20383;-88
2021/03/07 05:06:19;;;;;;;10.68;3.65;;;-0.30;84.60;;;;;;5066068;28;20450;-87
2021/03/07 05:08:44;;;;;;;4.88;2.92;;;-0.30;84.70;;;;;;5065165;28;20021;-87
2021/03/07 05:11:10;;;;;;;5.00;3.00;;;-0.30;84.80;;;;;;5071249;28;20032;-87
2021/03/07 05:13:35;;;;;;;5.80;3.35;;;-0.40;84.90;;;;;;5078538;28;20077;-87
2021/03/07 05:16:01;;;;;;;4.70;2.72;;;-0.50;85.00;;;;;;5062708;28;20469;-87
2021/03/07 05:18:27;;;;;;;5.72;3.42;;;-0.50;85.20;;;;;;5067768;28;20490;-87
2021/03/07 05:20:52;;;;;;;5.10;2.80;;;-0.60;85.40;;;;;;5062740;28;20499;-87
2021/03/07 05:23:18;;;;;;;4.88;2.78;;;-0.60;85.60;;;;;;5074737;28;20028;-88
2021/03/07 05:25:43;;;;;;;5.35;2.80;;;-0.60;85.80;;;;;;5064818;28;20066;-87
2021/03/07 05:28:09;;;;;;;4.18;2.60;;;-0.60;85.90;;;;;;5062971;28;20025;-87
2021/03/07 05:30:36;;;;;;;4.55;2.67;;;-0.60;85.80;;;;;;5060537;28;20099;-87
2021/03/07 05:33:02;;;;;;;5.72;3.53;;;-0.60;85.80;;;;;;5068817;28;20052;-87
2021/03/07 05:35:27;;;;;;;7.40;2.83;;;-0.60;85.90;;;;;;5080271;28;20057;-88
2021/03/07 05:37:53;;;;;;;4.63;2.88;;;-0.60;86.00;;;;;;5061813;28;20021;-87
2021/03/07 05:40:19;;;;;;;6.10;3.13;;;-0.60;85.80;;;;;;5063008;28;20023;-87
2021/03/07 05:42:45;;;;;;;5.18;3.10;;;-0.60;85.80;;;;;;5060688;28;20070;-87
2021/03/07 05:45:11;;;;;;;6.38;3.40;;;-0.60;85.80;;;;;;5066615;28;20055;-88
2021/03/07 05:47:37;;;;;;;4.47;2.83;;;-0.60;85.80;;;;;;5065434;28;20074;-88
2021/03/07 05:50:05;;;;;;;6.95;3.03;;;-0.70;85.70;;;;;;5061572;28;20032;-87
2021/03/07 05:52:31;;;;;;;5.65;3.22;;;-0.70;85.90;;;;;;5068285;28;20075;-87
2021/03/07 05:54:57;;;;;;;4.88;2.75;;;-0.70;85.90;;;;;;5063851;28;20017;-88
2021/03/07 05:57:25;;;;;;;4.80;3.20;;;-0.70;86.00;;;;;;5066733;28;20127;-88
2021/03/07 05:59:52;;;;;;;6.43;3.45;;;-0.80;86.10;;;;;;5073779;28;20021;-87
2021/03/07 06:02:18;;;;;;;5.88;3.20;;;-0.80;86.30;;;;;;5067517;28;20017;-88
2021/03/07 06:04:49;;;;;;;6.63;3.00;;;-0.80;86.30;;;;;;5062283;28;20048;-87
2021/03/07 06:07:15;;;;;;;4.93;2.83;;;-0.80;86.30;;;;;;5074223;28;20059;-88
2021/03/07 06:09:41;;;;;;;4.65;3.05;;;-0.80;86.40;;;;;;5075034;28;20112;-87
2021/03/07 06:12:17;;;;;;;4.75;3.13;;;-0.80;86.40;;;;;;5060447;28;20059;-87
2021/03/07 06:14:44;;;;;;;4.35;2.97;;;-0.80;86.40;;;;;;5060500;28;20029;-87
2021/03/07 06:17:14;;;;;;;5.15;3.10;;;-0.80;86.40;;;;;;5069511;28;20021;-87
2021/03/07 06:20:00;;;;;;;4.78;2.97;;;-0.80;86.40;;;;;;5069917;28;20526;-87
2021/03/07 06:22:27;;;;;;;5.18;2.60;;;-0.80;86.50;;;;;;5062415;28;20541;-88
2021/03/07 06:24:53;;;;;;;4.22;2.72;;;-0.90;86.80;;;;;;5062712;28;20037;-88
2021/03/07 06:27:20;;;;;;;4.22;2.88;;;-0.90;86.80;;;;;;5076087;28;20021;-87
2021/03/07 06:29:59;;;;;;;4.07;3.00;;;-0.90;86.90;;;;;;5062604;28;20556;-88
2021/03/07 06:32:30;;;;;;;4.38;2.80;;;-0.90;87.00;;;;;;5071617;28;20017;-88
2021/03/07 06:34:56;;;;;;;3.90;2.50;;;-0.90;87.10;;;;;;5065425;28;20029;-87
2021/03/07 06:37:22;;;;;;;4.47;3.05;;;-0.90;87.00;;;;;;5062531;28;20075;-87
2021/03/07 06:39:48;;;;;;;4.25;3.25;;;-0.90;87.00;;;;;;5073028;28;20016;-88
2021/03/07 06:42:15;;;;;;;4.78;2.63;;;-0.90;87.10;;;;;;5068562;28;20051;-88
2021/03/07 06:45:01;;;;;;;4.65;2.70;;;-0.90;87.10;;;;;;5061982;28;20513;-87
2021/03/07 06:47:28;;;;;;;6.55;3.53;;;-0.70;87.20;;;;;;5073056;28;20083;-87
2021/03/07 06:50:14;;;;;;;4.50;2.58;;;-0.60;87.00;;;;;;5072793;28;20107;-88
2021/03/07 06:52:59;;;;;;;4.43;3.00;;;-0.60;87.50;;;;;;5060360;28;20048;-88
2021/03/07 06:55:27;;;;;;;4.88;2.85;;;-0.50;87.10;;;;;;5068806;28;20017;-88
2021/03/07 06:57:54;;;;;;;6.35;4.20;;;-0.30;87.00;;;;;;5063370;28;20040;-88
2021/03/07 07:00:37;;;;;;;5.20;3.35;;;-0.10;87.00;;;;;;5065157;28;20032;-88
2021/03/07 07:03:13;;;;;;;5.07;2.90;;;0.00;86.90;;;;;;5083487;28;20415;-88
2021/03/07 07:05:43;;;;;;;5.05;3.33;;;0.10;86.70;;;;;;5066705;28;20031;-88
2021/03/07 07:08:12;;;;;;;4.75;3.00;;;0.20;86.70;;;;;;5069837;28;20021;-87
2021/03/07 07:10:56;;;;;;;4.25;2.88;;;0.40;86.80;;;;;;5063490;28;20020;-88
2021/03/07 07:13:23;;;;;;;4.90;3.35;;;0.50;86.90;;;;;;5059875;28;20032;-88
2021/03/07 07:16:01;;;;;;;4.88;2.80;;;0.50;86.90;;;;;;5064979;28;20043;-88
2021/03/07 07:18:27;;;;;;;5.55;3.10;;;0.60;87.00;;;;;;5065418;28;20467;-88
2021/03/07 07:20:55;;;;;;;5.57;3.78;;;0.60;87.20;;;;;;5069195;28;20024;-88
2021/03/07 07:23:22;;;;;;;6.80;4.35;;;0.60;87.70;;;;;;5070286;28;20027;-88
2021/03/07 07:25:48;;;;;;;6.65;4.43;;;0.60;87.90;;;;;;5054481;28;20033;-87
2021/03/07 07:28:15;;;;;;;7.72;4.57;;;0.70;88.30;;;;;;5054424;28;20032;-88
2021/03/07 07:30:41;;;;;;;7.07;4.70;;;0.70;88.30;;;;;;5052729;28;20024;-89
2021/03/07 07:33:15;;;;;;;8.95;5.40;;;0.80;88.70;;;;;;5054180;28;20016;-88
2021/03/07 07:35:42;;;;;;;7.30;4.93;;;0.90;89.10;;;;;;5053788;28;20473;-88
2021/03/07 07:38:11;;;;;;;7.50;5.57;;;1.00;89.30;;;;;;5060948;28;20476;-89
2021/03/07 07:40:41;;;;;;;7.20;5.10;;;1.00;89.40;;;;;;5074743;28;20016;-87
2021/03/07 07:43:07;;;;;;;6.05;4.47;;;1.10;89.60;;;;;;5073295;28;20561;-88
2021/03/07 07:45:33;;;;;;;7.07;4.85;;;1.10;89.70;;;;;;5073134;28;20029;-88
2021/03/07 07:47:59;;;;;;;6.82;4.60;;;1.20;89.90;;;;;;5073283;28;20052;-88
2021/03/07 07:50:31;;;;;;;5.85;4.47;;;1.20;90.00;;;;;;5073512;28;20094;-88
2021/03/07 07:52:57;;;;;;;6.30;4.28;;;1.20;90.10;;;;;;5073031;28;20029;-88
2021/03/07 07:55:43;;;;;;;7.97;4.30;;;1.30;90.20;;;;;;5073270;28;20016;-88
2021/03/07 07:58:10;;;;;;;5.85;4.15;;;1.40;90.20;;;;;;5072985;28;20139;-88
2021/03/07 08:00:51;;;;;;;6.55;4.60;;;1.40;90.30;;;;;;5073586;28;20017;-87
2021/03/07 08:03:29;;;;;;;7.28;4.32;;;1.50;90.40;;;;;;5052985;28;20132;-90
2021/03/07 08:05:55;;;;;;;4.93;3.47;;;1.60;90.40;;;;;;5080284;28;20024;-89
2021/03/07 08:08:30;;;;;;;6.15;4.03;;;1.70;90.50;;;;;;5080818;28;20047;-89
2021/03/07 08:10:55;;;;;;;6.47;4.20;;;1.90;90.50;;;;;;5080871;28;20020;-88
2021/03/07 08:13:27;;;;;;;6.00;4.50;;;2.00;90.40;;;;;;5083931;28;20024;-89
2021/03/07 08:15:57;;;;;;;6.97;4.43;;;2.20;90.50;;;;;;5085984;28;20468;-89
2021/03/07 08:18:43;;;;;;;5.68;4.10;;;2.30;90.50;;;;;;5096472;28;20017;-88
2021/03/07 08:21:09;;;;;;;7.28;4.18;;;2.30;90.40;;;;;;5104852;28;20488;-88
2021/03/07 08:23:54;;;;;;;6.18;4.57;;;2.50;90.50;;;;;;5080942;28;20020;-88
2021/03/07 08:26:19;;;;;;;7.75;5.15;;;2.60;90.50;;;;;;5053038;28;20027;-89
2021/03/07 08:28:45;;;;;;;9.45;5.03;;;2.60;90.50;;;;;;5076414;28;20107;-89
2021/03/07 08:31:20;;;;;;;6.93;4.53;;;2.70;90.50;;;;;;5082515;28;20020;-88
2021/03/07 08:33:46;;;;;;;6.32;4.43;;;2.90;90.50;;;;;;5073810;28;20028;-88
2021/03/07 08:36:24;;;;;;;7.20;4.97;;;2.90;90.50;;;;;;5074840;28;20029;-89
2021/03/07 08:38:52;;;;;;;7.68;5.88;;;3.00;90.60;;;;;;5074855;28;20052;-89
2021/03/07 08:41:22;;;;;;;8.05;5.85;;;3.00;90.80;;;;;;5075113;28;20105;-90
2021/03/07 08:43:58;;;;;;;8.05;6.20;;;3.10;90.90;;;;;;5072892;28;20035;-89
2021/03/07 08:46:43;;;;;;;7.03;4.88;;;3.20;91.00;;;;;;5078848;28;20028;-89
2021/03/07 08:49:24;;;;;;;6.32;4.72;;;3.30;91.10;;;;;;5083593;28;20020;-89
2021/03/07 08:51:51;;;;;;;9.25;4.18;;;3.50;91.10;;;;;;5085736;28;20024;-90
2021/03/07 08:54:22;;;;;;;6.82;4.38;;;3.60;91.00;;;;;;5094120;28;20020;-89
2021/03/07 08:56:51;;;;;;;5.72;3.90;;;3.80;90.90;;;;;;5094237;28;20013;-90
2021/03/07 08:59:17;;;;;;;6.15;4.00;;;3.90;90.80;;;;;;5081922;28;20055;-90
2021/03/07 09:01:49;;;;;;;9.40;5.43;;;4.10;90.60;;;;;;5094100;28;20115;-90
2021/03/07 09:04:15;;;;;;;6.88;3.97;;;4.20;90.60;;;;;;5093953;28;20032;-89
2021/03/07 09:06:45;;;;;;;5.07;3.40;;;4.30;90.60;;;;;;5092960;28;20024;-89
2021/03/07 09:09:14;;;;;;;6.25;4.38;;;4.40;90.60;;;;;;5086658;28;20035;-90
2021/03/07 09:11:48;;;;;;;7.60;4.30;;;4.50;90.60;;;;;;5057156;28;20031;-89
2021/03/07 09:14:14;;;;;;;5.80;3.85;;;4.60;90.60;;;;;;5065793;28;20260;-88
2021/03/07 09:16:45;;;;;;;8.30;3.95;;;4.70;90.60;;;;;;5063754;28;20061;-89
2021/03/07 09:19:29;;;;;;;4.85;3.42;;;4.70;90.60;;;;;;5065026;28;20025;-90
2021/03/07 09:22:30;;;;;;;4.93;3.45;;;4.90;90.50;;;;;;5061094;28;20446;-89
2021/03/07 09:24:56;;;;;;;8.50;3.78;;;5.00;90.50;;;;;;5059264;28;20051;-89
2021/03/07 09:27:24;;;;;;;5.68;3.70;;;5.10;90.30;;;;;;5075629;28;20028;-88
2021/03/07 09:30:14;;;;;;;7.47;4.43;;;5.30;90.20;;;;;;5073100;28;20048;-89
2021/03/07 09:32:45;;;;;;;5.97;3.63;;;5.50;89.90;;;;;;5073701;28;20016;-89
2021/03/07 09:35:34;;;;;;;6.18;3.75;;;5.60;89.60;;;;;;5070516;28;20078;-86
2021/03/07 09:38:01;;;;;;;4.30;3.25;;;5.70;89.20;;;;;;5068375;28;20070;-89
2021/03/07 09:40:32;;;;;;;5.53;3.35;;;5.90;88.80;;;;;;5063026;28;20044;-89
2021/03/07 09:43:08;;;;;;;4.10;3.20;;;6.00;88.00;;;;;;5069207;28;20036;-89
2021/03/07 09:45:37;;;;;;;5.53;3.30;;;6.10;87.60;;;;;;5070270;28;20052;-89
2021/03/07 09:48:03;;;;;;;5.65;3.03;;;6.30;87.20;;;;;;5070080;28;20112;-88
2021/03/07 09:50:29;;;;;;;3.80;3.35;;;6.50;86.70;;;;;;5062021;28;20039;-88
2021/03/07 09:52:55;;;;;;;4.22;3.20;;;6.60;86.00;;;;;;5069259;28;20024;-89
2021/03/07 09:55:24;;;;;;;3.55;2.60;;;6.80;85.40;;;;;;5069261;28;20017;-90
2021/03/07 09:58:08;;;;;;;3.20;2.50;;;7.00;84.80;;;;;;5069812;28;20039;-88
2021/03/07 10:00:38;;;;;;;4.28;2.75;;;7.10;83.50;;;;;;5088236;28;20078;-89
2021/03/07 10:03:16;;;;;;;5.28;3.20;;;7.40;79.00;;;;;;5065782;28;20024;-90
2021/03/07 10:05:41;;;;;;;3.85;2.25;;;7.60;78.60;;;;;;5068035;28;21175;-90
2021/03/07 10:08:22;;;;;;;3.00;2.10;;;7.80;78.50;;;;;;5066306;28;20024;-89
2021/03/07 10:10:47;;;;;;;2.88;2.13;;;8.20;76.50;;;;;;5063216;28;20029;-89
2021/03/07 10:13:16;;;;;;;2.97;1.60;;;8.30;74.20;;;;;;5066096;28;20395;-88
2021/03/07 10:15:42;;;;;;;3.75;1.80;;;8.60;73.10;;;;;;5068632;28;20021;-89
2021/03/07 10:18:13;;;;;;;3.85;1.70;;;8.80;72.10;;;;;;5071091;28;20502;-89
2021/03/07 10:20:44;;;;;;;2.20;1.50;;;9.30;71.00;;;;;;5064822;28;20024;-89
2021/03/07 10:23:11;;;;;;;2.20;1.30;;;9.90;69.20;;;;;;5060259;28;20027;-90
2021/03/07 10:25:44;;;;;;;3.20;1.70;;;10.70;66.60;;;;;;5061437;28;20075;-88
2021/03/07 10:28:19;;;;;;;3.10;1.65;;;11.70;60.10;;;;;;5085732;28;20476;-90
2021/03/07 10:30:45;;;;;;;3.20;1.70;;;12.30;58.40;;;;;;5070553;28;20025;-90
2021/03/07 10:33:30;;;;;;;1.95;1.20;;;13.40;57.20;;;;;;5065889;28;20083;-89
2021/03/07 10:36:13;;;;;;;1.63;1.00;;;13.80;54.90;;;;;;5064001;28;20062;-90
2021/03/07 10:38:40;;;;;;;2.28;1.30;;;13.70;55.40;;;;;;5069879;28;20021;-90
2021/03/07 10:41:17;;;;;;;1.98;1.00;;;14.10;54.10;;;;;;5062798;28;20483;-90
2021/03/07 10:43:47;;;;;;;2.80;1.38;;;13.00;51.90;;;;;;5068296;28;20362;-90
2021/03/07 10:46:43;;;;;;;2.28;1.35;;;12.60;53.70;;;;;;5066334;28;20104;-89
2021/03/07 10:49:10;;;;;;;2.60;1.08;;;12.90;54.10;;;;;;5101086;28;20028;-90
2021/03/07 10:51:36;;;;;;;1.65;1.27;;;13.40;53.50;;;;;;5079716;28;20027;-90
2021/03/07 10:54:02;;;;;;;1.95;1.10;;;13.50;51.30;;;;;;5068322;28;20021;-87
2021/03/07 10:56:30;;;;;;;2.35;1.00;;;13.50;51.70;;;;;;5068171;28;20211;-89
2021/03/07 10:58:56;;;;;;;1.13;0.80;;;13.70;51.90;;;;;;5070323;28;20093;-88
2021/03/07 11:01:22;;;;;;;1.33;0.70;;;13.30;52.30;;;;;;5068601;28;20029;-89
2021/03/07 11:03:47;;;;;;;1.35;0.90;;;12.70;51.90;;;;;;5058536;28;20380;-88
2021/03/07 11:06:13;;;;;;;1.65;0.60;;;12.60;51.30;;;;;;5066764;28;20476;-89
2021/03/07 11:08:39;;;;;;;1.13;0.50;;;12.00;51.50;;;;;;5076026;28;20098;-89
2021/03/07 11:11:05;;;;;;;3.08;0.70;;;11.60;52.90;;;;;;5064685;28;20083;-88
2021/03/07 11:13:32;;;;;;;2.08;0.80;;;11.30;52.40;;;;;;5058481;28;20021;-91
2021/03/07 11:15:57;;;;;;;1.05;0.60;;;11.70;52.80;;;;;;5058503;28;20016;-88
2021/03/07 11:18:23;;;;;;;1.13;0.70;;;11.70;51.80;;;;;;5066848;28;20384;-91
2021/03/07 11:20:49;;;;;;;0.75;0.60;;;11.60;52.30;;;;;;5058942;28;20028;-89
2021/03/07 11:23:16;;;;;;;1.27;0.80;;;12.30;51.70;;;;;;5065976;28;20115;-92
2021/03/07 11:25:41;;;;;;;1.70;0.90;;;11.90;50.40;;;;;;5061637;28;20021;-89
2021/03/07 11:28:07;;;;;;;3.05;0.90;;;11.40;50.20;;;;;;5085081;28;20115;-89
2021/03/07 11:30:33;;;;;;;1.90;0.93;;;11.70;50.60;;;;;;5063172;28;20112;-88
2021/03/07 11:32:59;;;;;;;1.67;0.85;;;11.20;48.40;;;;;;5074061;28;20051;-92
2021/03/07 11:35:24;;;;;;;3.90;1.00;;;11.10;50.00;;;;;;5064367;28;20017;-90
2021/03/07 11:37:52;;;;;;;3.15;0.82;;;11.30;50.90;;;;;;5067244;28;20080;-91
2021/03/07 11:40:18;;;;;;;2.65;1.00;;;11.70;49.30;;;;;;5078232;28;20032;-90
2021/03/07 11:42:43;;;;;;;3.45;1.58;;;12.00;49.50;;;;;;5084322;28;20032;-90
2021/03/07 11:45:09;;;;;;;2.10;0.90;;;12.00;49.10;;;;;;5084315;28;20554;-89
2021/03/07 11:47:35;;;;;;;1.48;0.90;;;11.80;49.50;;;;;;5077376;28;20032;-89
2021/03/07 11:50:00;;;;;;;2.35;1.40;;;11.70;49.90;;;;;;5085302;28;20471;-89
2021/03/07 11:52:26;;;;;;;2.03;1.05;;;11.60;49.40;;;;;;5080381;28;20476;-88
2021/03/07 11:54:51;;;;;;;2.65;1.20;;;10.90;49.30;;;;;;5071913;28;20052;-89
2021/03/07 11:57:17;;;;;;;2.20;1.05;;;10.80;50.20;;;;;;5061460;28;20025;-90
2021/03/07 11:59:45;;;;;;;1.35;0.85;;;10.90;50.60;;;;;;5070134;28;20052;-90
2021/03/07 12:02:11;;;;;;;1.13;0.80;;;11.20;50.70;;;;;;5067506;28;20048;-90
2021/03/07 12:04:36;;;;;;;2.20;0.95;;;12.10;50.40;;;;;;5065334;28;20480;-87
2021/03/07 12:07:02;;;;;;;0.85;0.82;;;13.20;50.00;;;;;;5066149;28;20519;-86
2021/03/07 12:09:27;;;;;;;1.58;0.60;;;14.50;49.20;;;;;;5068857;28;20552;-87
2021/03/07 12:11:53;;;;;;;2.70;0.85;;;15.80;47.90;;;;;;5083227;28;20429;-89
2021/03/07 12:14:18;;;;;;;1.20;0.60;;;16.20;45.20;;;;;;5077190;28;20475;-91
2021/03/07 12:16:44;;;;;;;1.67;0.70;;;15.50;45.10;;;;;;5072354;28;20060;-90
2021/03/07 12:19:10;;;;;;;2.17;1.00;;;15.00;45.50;;;;;;5067393;28;20025;-88
2021/03/07 12:21:35;;;;;;;1.52;0.70;;;14.20;44.90;;;;;;5069800;28;20028;-89
2021/03/07 12:24:01;;;;;;;1.73;0.60;;;13.40;46.30;;;;;;5069715;28;21518;-89
2021/03/07 12:26:27;;;;;;;2.03;0.98;;;13.00;47.50;;;;;;5066231;28;20071;-87
2021/03/07 12:28:53;;;;;;;2.17;1.13;;;12.50;48.00;;;;;;5072844;28;20008;-90
2021/03/07 12:31:18;;;;;;;1.63;1.00;;;12.20;48.30;;;;;;5073719;28;20472;-89
2021/03/07 12:33:44;;;;;;;1.92;0.90;;;11.90;48.70;;;;;;5068610;28;20023;-88
2021/03/07 12:36:10;;;;;;;1.13;0.90;;;11.90;49.40;;;;;;5064710;28;20020;-88
2021/03/07 12:38:35;;;;;;;2.08;0.95;;;12.10;49.70;;;;;;5060422;28;20028;-90
2021/03/07 12:41:01;;;;;;;3.30;1.10;;;12.50;48.80;;;;;;5064710;28;20020;-88
2021/03/07 12:43:26;;;;;;;2.50;1.20;;;12.50;48.10;;;;;;5062663;28;20369;-89
2021/03/07 12:45:52;;;;;;;3.10;1.60;;;12.30;48.00;;;;;;5082830;28;20020;-89
2021/03/07 12:48:17;;;;;;;1.67;1.13;;;12.20;47.50;;;;;;5067997;28;20028;-89
2021/03/07 12:50:43;;;;;;;2.58;1.20;;;12.00;48.30;;;;;;5068966;28;20024;-90
2021/03/07 12:53:09;;;;;;;2.08;1.05;;;11.80;48.90;;;;;;5059107;28;20031;-89
2021/03/07 12:55:37;;;;;;;1.92;1.33;;;11.70;49.60;;;;;;5062846;28;20550;-90
2021/03/07 12:58:03;;;;;;;1.98;1.10;;;11.50;50.20;;;;;;5060695;28;20012;-89
2021/03/07 13:00:28;;;;;;;1.50;1.05;;;11.30;50.20;;;;;;5071849;28;20024;-89